Eduardo Braga

Recruteur en chef - Cruzeiro
6 Déc 2028
Mercredi
Processus

Personnalité

Adaptabilité (20) Ambition (7) Controverse (12) Loyauté (9) Pression (16) Professionnalisme (8) Sportivité (1) Tempérament (15)

Profil

Style d'entraînement Démocratique
Diplôme National A
Détermination 8
Gestion des joueurs 6
Motivation 14
Discipline 14
Satisfaction professionnelle
100%
Fatigue
0%
Rôle Recruteur en chef
Salaire 39.6K p/s
Contrat 14.03.2030

Performance

Comportement Bon
Efficacité de l'entraînement
39%
Développement des joueurs
55%
Prévention des blessures
40%
Mise en place tactique
30%

Événements récents

A participé à une réunion de recrutement maintenant
A recommandé une cible de transfert maintenant
A recommandé une cible de transfert maintenant
A évalué un joueur 7j
A évalué un joueur 7j
A présenté un dossier au conseil 7j
A évalué un joueur 7j
A présenté un dossier au conseil 7j

Suivi en cours

394
Joueur Club Statut Capacité Confiance Observé Dernière observation Dernier vote
Francis Amuzu Atletico Goianiense Rapport prêt 131 / 134 79% 1 05.12.2028 -
Franco Herrera Bragantino Perdu 120 / 117 79% 1 04.12.2028 -
Diego Hernández Sport Recife Rapport prêt 124 / 120 79% 1 03.12.2028 -
Danilo Botafogo Actif 142 / 143 40% 6 02.12.2028 -
Ramón Sosa Palmeiras Actif 134 / 133 40% 1 02.12.2028 -
Chiquinho Leixões Négociation 142 / 138 40% 1 02.12.2028 -
Kevin Fulham Actif 156 / 158 40% 6 01.12.2028 -
Nicolas Jackson Aston Villa Actif 158 / 157 40% 9 01.12.2028 -
Álex Valle Boca Juniors Actif 147 / 142 40% 7 01.12.2028 -
Gonzalo Plata Nacional Actif 138 / 138 40% 1 01.12.2028 -
Cucho Hernández Granada Actif 152 / 150 40% 1 01.12.2028 -
Alexandro Bernabei Internacional Actif 146 / 140 40% 7 30.11.2028 -
Evann Guessand Aston Villa Actif 154 / 152 40% 2 30.11.2028 -
Jakub Kamiński Nacional Actif 149 / 149 40% 2 30.11.2028 -
Dango Ouattara Middlesbrough Actif 163 / 155 40% 1 30.11.2028 -
William Osula Wrexham Actif 138 / 141 40% 1 30.11.2028 -
Nahuel Tenaglia Banfield Actif 137 / 132 40% 1 30.11.2028 -
Ryan Sessegnon Fulham Actif 157 / 152 40% 4 28.11.2028 -
Rodrigo Gomes Wolverhampton Actif 147 / 151 40% 2 28.11.2028 -
Geovany Quenda Watford Actif 159 / 160 40% 4 28.11.2028 -
Fábio Carvalho Brentford Actif 150 / 149 40% 4 27.11.2028 -
Martinelli Fluminense Actif 143 / 141 40% 1 27.11.2028 -
Savinho Tottenham Actif 171 / 165 40% 8 26.11.2028 -
Tino Livramento Newcastle United Actif 169 / 166 40% 7 26.11.2028 -
Brenden Aaronson Internacional Actif 148 / 151 40% 3 25.11.2028 -
Ben Gannon Doak Charlton Athletic Actif 155 / 155 40% 6 25.11.2028 -
Brennan Johnson Southampton Actif 151 / 157 40% 3 25.11.2028 -
Endrick Boca Juniors Actif 160 / 163 40% 7 23.11.2028 -
Matteo Cancellieri Flamengo Actif 150 / 145 40% 3 23.11.2028 -
Jaidon Anthony Derby County Actif 141 / 146 40% 1 22.11.2028 -
Babis Kostoulas Oxford United Actif 145 / 152 40% 1 21.11.2028 -
Mateus Fernandes Sheffield United Actif 156 / 156 40% 1 20.11.2028 -
Guille Rosas Boca Juniors Actif 151 / 144 40% 1 20.11.2028 -
Ander Barrenetxea Manchester United Actif 162 / 153 40% 1 18.11.2028 -
Harry Wilson Leeds United Actif 158 / 150 40% 6 17.11.2028 -
Jaden Philogene Wolverhampton Actif 150 / 149 40% 5 17.11.2028 -
Alejandro Garnacho Hull City Actif 159 / 164 40% 2 17.11.2028 -
Lucas Paquetá Flamengo Actif 142 / 140 40% 4 16.11.2028 -
Emile Smith Rowe Cardiff City Actif 165 / 160 40% 4 14.11.2028 -
Gabriel Martinelli Arsenal Actif 170 / 166 40% 3 11.11.2028 -
Maximiliano Araújo West Ham United Actif 161 / 159 40% 6 10.11.2028 -
Matheus Cunha Manchester United Actif 162 / 162 40% 2 10.11.2028 -
Dejan Kulusevski Tottenham Actif 172 / 171 40% 4 08.11.2028 -
Carlos Alcaraz Stoke City Actif 161 / 157 40% 4 06.11.2028 -
Marcelo Allende Mamelodi Sundowns Actif 139 / 140 40% 4 03.11.2028 -
Iliman N'Diaye Everton Actif 162 / 163 40% 4 03.11.2028 -
Rico Lewis West Bromwich Albion Actif 160 / 162 40% 2 27.10.2028 -
Borja Sainz Udinese Actif 156 / 156 40% 1 26.10.2028 -
Malick Fofana Sunderland Actif 158 / 160 40% 4 23.10.2028 -
Fer López Wolverhampton Actif 152 / 146 40% 3 23.10.2028 -
Amine Adli Bournemouth Actif 155 / 153 40% 3 22.10.2028 -
Galeno Al-Ahli Actif 151 / 152 40% 2 21.10.2028 -
Lewis Cook Blackburn Rovers Actif 155 / 154 40% 2 21.10.2028 -
André Wolverhampton Actif 158 / 153 40% 6 20.10.2028 -
Mason Mount Manchester United Actif 160 / 157 40% 1 19.10.2028 -
Mikkel Damsgaard Brentford Actif 149 / 152 40% 3 18.10.2028 -
Facundo Buonanotte Bristol City Actif 155 / 150 40% 1 16.10.2028 -
Julio Enciso Aston Villa Actif 160 / 155 40% 2 15.10.2028 -
Ismaël Bennacer Boca Juniors Actif 153 / 148 40% 1 10.10.2028 -
Mats Wieffer Brighton Actif 153 / 157 40% 4 09.10.2028 -
Morgan Gibbs-White Chelsea Actif 158 / 159 40% 1 09.10.2028 -
Matt O'Riley Brighton Actif 157 / 154 40% 1 07.10.2028 -
Sandro Tonali Tottenham Actif 182 / 175 40% 9 03.10.2028 -
Luiz Fernando Fortaleza Actif 128 / 128 30% 1 / 1m 23.08.2028 -
Archie Gray Southampton Actif 154 / 156 40% 4 19.06.2028 -
Vanderlan Bragantino Actif 120 / 124 79% 1 07.06.2028 Approuver
João Pedro Chelsea Actif 154 / 158 40% 1 01.06.2028 -
Jacques Ekomié Wrexham Actif 138 / 138 40% 4 31.05.2028 -
Max Bird Birmingham Actif 138 / 138 40% 8 31.05.2028 -
Jeremy Sarmiento Middlesbrough Actif 137 / 136 40% 1 31.05.2028 -
Manuel Ugarte Leicester City Actif 150 / 147 40% 4 30.05.2028 -
Andrey Santos Bolton Wanderers Actif 148 / 151 40% 4 29.05.2028 -
Neco Williams Wrexham Actif 148 / 147 40% 5 27.05.2028 -
Jarrad Branthwaite Everton Actif 156 / 159 40% 2 27.05.2028 -
Joe Rodon Blackburn Rovers Actif 143 / 145 40% 8 25.05.2028 -
Vitaly Janelt Derby County Actif 146 / 145 40% 4 24.05.2028 -
Moisés Caicedo Chelsea Actif 169 / 172 40% 8 20.05.2028 -
Nordi Mukiele Sunderland Actif 147 / 146 40% 5 17.05.2028 -
Shea Charles Southampton Actif 141 / 146 40% 4 17.05.2028 -
Kauê Furquim Boa Actif 100 / 105 30% 1 / 1m 17.05.2028 -
Neto Sampaio Correa Actif 87 / 87 30% 1 / 1m 17.05.2028 -
Pedro Porro Tottenham Actif 161 / 152 40% 6 16.05.2028 -
Jan Paul van Hecke Tottenham Actif 166 / 160 40% 4 16.05.2028 -
Callum Brittain Middlesbrough Actif 140 / 136 40% 2 14.05.2028 -
Xaver Schlager Nottingham Forest Actif 158 / 155 40% 1 14.05.2028 -
Jayden Bogle Leeds United Actif 140 / 141 40% 6 13.05.2028 -
Óscar Mingueza Crystal Palace Actif 151 / 154 40% 6 13.05.2028 -
Lamare Bogarde Reading Actif 146 / 141 40% 1 13.05.2028 -
Welington Southampton Actif 131 / 137 40% 7 10.05.2028 -
Angeliño AS Roma Actif 148 / 150 40% 5 07.05.2028 -
Aaron Hickey Brentford Actif 151 / 148 40% 6 06.05.2028 -
Boubacar Kamara Aston Villa Actif 166 / 166 40% 10 04.05.2028 -
Manu Koné AS Roma Actif 177 / 167 40% 7 22.04.2028 -
Honest Ahanor Atalanta Actif 134 / 141 40% 2 22.04.2028 -
Quilindschy Hartman Burnley Actif 153 / 147 40% 3 18.04.2028 -
Bafodé Diakité Plymouth Argyle Actif 144 / 144 40% 3 16.04.2028 -
Amadou Onana Aston Villa Actif 164 / 160 40% 3 09.04.2028 -
Max Johnston Derby County Actif 139 / 136 40% 4 06.04.2028 -
Vitinho Botafogo Actif 135 / 137 40% 9 02.04.2028 -
Jake O'Brien Everton Actif 148 / 151 40% 2 31.03.2028 -
Vitão Flamengo Actif 146 / 141 40% 2 31.03.2028 -
Marcos Antonio Sport Recife Actif 138 / 142 40% 7 19.03.2028 -
Souffian El Karouani Al-Qadisiyah Actif 135 / 139 40% 2 18.03.2028 -
Agustín Giay Palmeiras Actif 137 / 138 40% 3 18.03.2028 -
Ousmane Diomande Nottingham Forest Actif 165 / 162 40% 1 18.03.2028 -
Caio Alexandre Bahia Actif 134 / 135 40% 4 12.03.2028 -
Exequiel Palacios Lazio Actif 162 / 161 40% 2 11.03.2028 -
Luciano Juba Bahia Actif 133 / 135 40% 3 10.03.2028 -
Reece James Chelsea Actif 172 / 175 40% 2 02.03.2028 -
Arthur Flamengo Actif 143 / 141 40% 3 26.02.2028 -
Lucas Piton Vasco da Gama Actif 134 / 131 40% 3 25.02.2028 -
Jordan Beyer Burnley Actif 146 / 139 40% 2 25.02.2028 -
Martín Zubimendi Arsenal Actif 168 / 168 40% 1 16.01.2028 -
Rico Henry River Plate Actif 145 / 141 40% 2 09.01.2028 -
Josh Keeley Luton Town Actif 138 / 135 40% 4 29.11.2027 -
Anthony Patterson Wrexham Actif 139 / 136 40% 6 29.11.2027 -
Christos Mandas Lazio Actif 146 / 150 40% 2 29.11.2027 -
Bernardo Lima Porto Actif 108 / 119 40% 1 29.11.2027 -
Lucas Bergvall Tottenham Actif 152 / 153 40% 1 29.11.2027 -
Evgeny Latyshonok Nizhniy Novgorod Actif 123 / 128 40% 1 26.11.2027 -
Lukas Jensen Millwall Actif 128 / 121 40% 1 26.11.2027 -
Caoimhin Kelleher Brentford Actif 158 / 154 40% 15 25.11.2027 -
Patrick Schulte Columbus Crew Actif 131 / 127 40% 6 24.11.2027 -
Alejandro Rodríguez Melgar Actif 130 / 128 40% 5 24.11.2027 -
Roman Celentano FC Cincinnati Actif 128 / 129 40% 5 23.11.2027 -
Aaron Ramsdale Southampton Actif 154 / 153 40% 8 23.11.2027 -
Ezequiel Centurión River Plate Actif 123 / 124 40% 8 22.11.2027 -
James Trafford Leeds United Actif 148 / 148 40% 3 21.11.2027 -
Gabriel Brazão Santos Actif 138 / 138 40% 8 21.11.2027 -
Dean Henderson Crystal Palace Actif 159 / 156 40% 11 20.11.2027 -
Gabriel Batista Botafogo Actif 131 / 129 40% 9 20.11.2027 -
Nathan Trott Cardiff City Actif 126 / 133 40% 4 19.11.2027 -
Fran Vieites Walsall Actif 121 / 129 40% 2 19.11.2027 -
Matt Freese Shakhtar Actif 136 / 138 40% 1 19.11.2027 -
Radek Vítek Middlesbrough Actif 149 / 145 40% 7 18.11.2027 -
Dayne St. Clair Inter Miami CF Actif 131 / 126 40% 4 18.11.2027 -
Michele Di Gregorio Juventus Actif 160 / 154 40% 5 17.11.2027 -
Carl Rushworth Aston Villa Actif 151 / 147 40% 2 17.11.2027 -
Hugo Souza Corinthians Actif 145 / 140 40% 10 16.11.2027 -
Nikita Haikin Bodo/Glimt Actif 148 / 142 40% 8 15.11.2027 -
Leopold Wahlstedt Rosenborg Actif 119 / 121 40% 1 15.11.2027 -
Oscar Steinke Brånby Hammarby Actif 105 / 112 40% 1 14.11.2027 -
Matias Siltanen Malmo FF Actif 120 / 128 40% 3 12.11.2027 -
Sol Brynn Bradford City Actif 133 / 136 40% 3 12.11.2027 -
Kauã Moraes Flamengo Perdu 124 / 128 40% 4 12.11.2027 -
Carlos Coronel Fluminense Actif 130 / 135 40% 9 11.11.2027 -
Lucas Arcanjo Vitória Actif 134 / 128 40% 5 11.11.2027 -
Angus Gunn San Jose Earthquakes Actif 128 / 125 40% 3 10.11.2027 -
Alex Meret Napoli Actif 155 / 153 40% 7 06.11.2027 -
Souza Tottenham Actif 131 / 136 40% 2 06.11.2027 -
Adrian Skogmar Malmo FF Actif 115 / 123 40% 1 06.11.2027 -
Zack Steffen Colorado Rapids Actif 128 / 129 40% 5 05.11.2027 -
Agustín Rossi Flamengo Actif 140 / 139 40% 7 05.11.2027 -
Hugo Rojas Instituto Actif 108 / 112 40% 1 03.11.2027 -
Martim Cunha Porto Actif 111 / 116 40% 1 03.11.2027 -
Nahuel Leivas Montevideo City Torque Actif 106 / 108 40% 2 02.11.2027 -
Azizbek To'lqinbekov Bunyodkor Actif 98 / 105 40% 1 02.11.2027 -
Diego Enríquez Sporting Cristal Actif 134 / 137 40% 6 29.10.2027 -
Lukáš Horníček Burnley Actif 153 / 147 40% 4 28.10.2027 -
Carlos Miguel Palmeiras Actif 140 / 138 40% 2 27.10.2027 -
Vladan Kovačević Norwich City Actif 123 / 121 40% 4 26.10.2027 -
Mads Hermansen West Ham United Actif 146 / 142 40% 8 23.10.2027 -
Diego Romero Universitario Actif 123 / 125 40% 2 20.10.2027 -
Tomás Marchiori Zamalek Actif 134 / 131 40% 2 19.10.2027 -
Caleb Yirenkyi Coventry City Actif 145 / 150 40% 2 18.10.2027 -
Bart Verbruggen Liverpool Actif 162 / 161 40% 1 16.10.2027 -
Gabriel Grando São Paulo Actif 132 / 131 40% 4 14.10.2027 -
Giorgi Mamardashvili Liverpool Actif 165 / 169 40% 2 09.10.2027 -
Robin Roefs Sunderland Actif 155 / 147 40% 2 08.10.2027 -
Gonçalo Oliveira Benfica Actif 111 / 128 40% 2 08.10.2027 -
Ľubomír Belko Viking Actif 135 / 127 40% 5 05.10.2027 -
Léo Jardim Vasco da Gama Actif 135 / 140 40% 6 03.10.2027 -
Renato Solís Sporting Cristal Actif 126 / 127 40% 1 02.10.2027 -
Facundo Balatti Penarol Actif 106 / 116 40% 1 02.10.2027 -
Christos Mouzakitis Hull City Actif 138 / 137 40% 1 02.10.2027 -
Ayden Heaven Portsmouth Actif 141 / 147 40% 2 01.10.2027 -
Josh Acheampong Everton Actif 145 / 148 40% 3 29.09.2027 -
Eliás Montiel Borussia Dortmund Actif 137 / 139 40% 1 28.09.2027 -
Mile Svilar AS Roma Actif 171 / 166 40% 5 24.09.2027 -
Giovanni Leoni Lincoln City Actif 140 / 149 40% 2 22.09.2027 -
Agustín Obregón River Plate Actif 114 / 121 40% 1 22.09.2027 -
Miguel Figueiredo Benfica Actif 115 / 128 40% 2 21.09.2027 -
Zion Suzuki Aston Villa Actif 148 / 154 40% 4 19.09.2027 -
Victor Hernandez Santa Fe Actif 120 / 122 40% 2 19.09.2027 -
Malick Yalcouyé Brighton Actif 127 / 130 40% 1 19.09.2027 -
Cleiton Spartak Moscow Actif 134 / 127 40% 2 16.09.2027 -
Kepa Arrizabalaga Arsenal Actif 154 / 153 40% 1 16.09.2027 -
Luis Ingolotti Atlético Tucumán Actif 131 / 128 40% 2 08.09.2027 -
José Cavadia Aguilas Doradas Actif 106 / 117 40% 1 01.09.2027 -
Lautaro Morales Lanús Actif 135 / 127 40% 2 29.08.2027 -
Luka Vušković Tottenham Actif 148 / 155 40% 2 29.08.2027 -
Nazareno Roselli Defensa y Justicia Actif 110 / 120 40% 1 27.08.2027 -
Álvaro Montero Al Ain Actif 132 / 139 40% 1 24.08.2027 -
Mike Maignan AC Milan Actif 162 / 171 40% 7 19.08.2027 -
Tommaso Cecotti Carpi Actif 93 / 98 40% 1 19.08.2027 -
Jonathan Klinsmann Cesena Actif 134 / 132 40% 5 15.08.2027 -
Elia Caprile Cagliari Actif 153 / 155 40% 4 13.08.2027 -
Riccardo Gagno Vicenza Actif 127 / 130 40% 2 12.08.2027 -
Álvaro Fernández Valencia Actif 147 / 147 40% 1 10.08.2027 -
Maílson Al-Taawoun Actif 134 / 137 40% 2 06.08.2027 -
Sascha Britschgi AC Milan Actif 117 / 126 40% 1 06.08.2027 -
Riley Owen Stevenage Actif 109 / 109 40% 1 06.08.2027 -
Mbekezeli Mbokazi Chicago Fire Actif 130 / 130 40% 1 05.08.2027 -
Bruno Varela Al-Hazem Actif 137 / 126 40% 4 03.08.2027 -
Oliver Dovin Coventry City Actif 130 / 134 40% 2 29.07.2027 -
Alex Palmer Ipswich Town Actif 130 / 130 40% 3 25.07.2027 -
Denis Adamov Zenit Actif 132 / 127 40% 1 12.07.2027 -
Wellerson Oeste Actif 105 / 105 42% 1 / 1m 07.07.2027 -
Kahiser Lenis Ceará Actif 120 / 120 30% 1 / 1m 07.07.2027 -
Ivor Pandur Hull City Actif 124 / 124 40% 2 28.06.2027 -
Grégoire Coudert Burnley Actif 133 / 136 40% 1 28.06.2027 -
Joseph Leclercq Tottenham Actif 155 / 152 40% 3 22.06.2027 -
Balázs Tóth Blackburn Rovers Actif 131 / 134 40% 2 22.06.2027 -
Andrey Santa Cruz Actif 110 / 113 79% 1 14.06.2027 Approuver
Christian Walton Ipswich Town Actif 125 / 130 40% 1 09.06.2027 -
Sławomir Abramowicz Jagiellonia Actif 130 / 123 40% 1 04.06.2027 -
Sorba Thomas Stoke City Actif 133 / 127 40% 4 31.05.2027 -
Chemsdine Talbi Sunderland Actif 144 / 144 40% 4 30.05.2027 -
Che Adams Torino Actif 140 / 143 40% 3 29.05.2027 -
Morgan Rogers Chelsea Actif 164 / 157 40% 1 29.05.2027 -
Jack McGlynn Stoke City Actif 135 / 139 40% 1 28.05.2027 -
Samuel Edozie Southampton Actif 135 / 132 40% 2 27.05.2027 -
Eddie Nketiah Crystal Palace Actif 135 / 144 40% 5 26.05.2027 -
Joe Gelhardt Hull City Actif 134 / 137 40% 4 26.05.2027 -
Christian Pulisic AC Milan Actif 168 / 160 40% 1 26.05.2027 -
Emanuel Emegha Chelsea Actif 143 / 146 40% 1 26.05.2027 -
Toby Collyer West Bromwich Albion Actif 126 / 137 40% 1 25.05.2027 -
Kwadwo Baah Watford Actif 123 / 133 40% 1 25.05.2027 -
Jack Rudoni Coventry City Actif 140 / 135 40% 3 23.05.2027 -
Manor Solomon West Ham United Actif 143 / 142 40% 3 22.05.2027 -
Tyrese Campbell Sheffield United Actif 131 / 126 40% 1 22.05.2027 -
Jordan Pickford Everton Actif 157 / 153 40% 2 19.05.2027 -
Yeremy Pino Crystal Palace Actif 147 / 148 40% 3 19.05.2027 -
Łukasz Skorupski Bologna Actif 150 / 140 40% 2 19.05.2027 -
Matheus Araújo Oeste Actif 93 / 93 52% 1 / 1m 19.05.2027 -
Jonas Oeste Actif 77 / 82 30% 1 / 1m 19.05.2027 -
Jacob Ramsey Newcastle United Actif 147 / 153 40% 2 11.05.2027 -
Mohamed-Ali Cho Hull City Actif 139 / 138 40% 5 10.05.2027 -
James Maddison Tottenham Actif 153 / 156 40% 4 10.05.2027 -
Jason Knight Bristol City Actif 129 / 123 40% 1 07.05.2027 -
Xavi Simons Tottenham Actif 157 / 156 40% 3 04.05.2027 -
Marcus Edwards Burnley Actif 143 / 139 40% 2 03.05.2027 -
Bobby Clark Derby County Actif 128 / 130 40% 1 02.05.2027 -
John McGinn Aston Villa Actif 154 / 149 40% 3 01.05.2027 -
Will Mannion Charlton Athletic Actif 113 / 108 40% 1 30.04.2027 -
Kevin Schade Chelsea Actif 154 / 154 40% 1 29.04.2027 -
Yehor Yarmoliuk Brentford Actif 143 / 145 40% 2 27.04.2027 -
Giacomo Raspadori Atalanta Actif 152 / 140 40% 2 25.04.2027 -
Gianluca Scamacca Atalanta Actif 156 / 148 40% 2 24.04.2027 -
Leroy Sané Galatasaray Actif 152 / 154 40% 2 23.04.2027 -
Ilyas Ansah Hull City Actif 128 / 133 40% 2 21.04.2027 -
Murphy Cooper Plymouth Argyle Actif 114 / 110 40% 2 20.04.2027 -
Jak Alnwick Huddersfield Town Actif 113 / 111 40% 1 18.04.2027 -
Joel Pereira Reading Actif 114 / 116 40% 1 18.04.2027 -
Lewis Hall Newcastle United Actif 147 / 148 40% 1 15.04.2027 -
Bongani Zungu Ajax Cape Town Actif 129 / 130 40% 2 14.04.2027 -
Yoane Wissa Newcastle United Actif 142 / 142 40% 2 13.04.2027 -
Ianis Hagi Alanyaspor Actif 122 / 132 40% 1 13.04.2027 -
Jackson Muleka Konyaspor Actif 133 / 126 40% 1 13.04.2027 -
Hidemasa Morita Hull City Actif 138 / 145 40% 2 11.04.2027 -
Mohamadou Kanté Crawley Town Actif 117 / 123 40% 1 11.04.2027 -
Zian Flemming Ipswich Town Actif 129 / 135 40% 2 10.04.2027 -
Azor Matusiwa Ipswich Town Actif 136 / 134 40% 1 10.04.2027 -
Sam Bell Bristol City Actif 126 / 124 40% 1 08.04.2027 -
Václav Černý Besiktas Actif 147 / 142 40% 1 07.04.2027 -
Samuel Justo Sporting CP Actif 112 / 111 40% 1 07.04.2027 -
Antoni Milambo Brentford Actif 143 / 147 40% 1 07.04.2027 -
Nicolò Zaniolo Udinese Actif 140 / 136 40% 3 05.04.2027 -
Ilias Sebaoui Sint-Truiden Actif 134 / 123 40% 1 03.04.2027 -
Callum O'Hare Sheffield United Actif 129 / 126 40% 1 03.04.2027 -
Malcom Al Jazira Actif 146 / 151 40% 1 29.03.2027 -
Finn Azaz Southampton Actif 131 / 123 40% 3 28.03.2027 -
Diogo Gonçalves Konyaspor Actif 128 / 124 40% 1 28.03.2027 -
Alexander Nübel Besiktas Actif 153 / 141 40% 1 28.03.2027 -
Emiliano Martínez Chelsea Actif 157 / 158 40% 1 28.03.2027 -
Sorriso Famalicao Actif 126 / 134 40% 6 27.03.2027 -
Carlos Forbs Club Brugge Actif 128 / 131 40% 7 27.03.2027 -
Mateja Stjepanović Moreirense Actif 127 / 122 40% 1 26.03.2027 -
Ricardo Horta Braga Actif 151 / 141 40% 11 25.03.2027 -
Pablo Rosario Porto Actif 145 / 143 40% 5 24.03.2027 -
Pepê Porto Actif 144 / 140 40% 10 24.03.2027 -
Fabijan Buntić Farense Actif 114 / 108 40% 1 23.03.2027 -
Sébastien Cibois Portimonense Actif 109 / 107 40% 1 23.03.2027 -
Juan Soriano Académico de Viseu Actif 128 / 127 40% 1 23.03.2027 -
Hwang In-Beom Porto Actif 148 / 144 40% 5 22.03.2027 -
Oli McBurnie Hull City Actif 140 / 134 40% 2 22.03.2027 -
Nuno Santos Sporting CP Actif 136 / 138 40% 7 21.03.2027 -
Geny Sporting CP Actif 153 / 145 40% 1 21.03.2027 -
Tomáš Rigo Stoke City Actif 136 / 131 40% 1 21.03.2027 -
Lovro Zvonarek Estrela da Amadora Actif 126 / 128 40% 1 21.03.2027 -
Sikou Niakaté Braga Actif 136 / 139 40% 2 19.03.2027 -
Gustaf Lagerbielke Braga Actif 135 / 138 40% 1 19.03.2027 -
Brooke Norton-Cuffy Hull City Actif 132 / 144 40% 1 19.03.2027 -
Alberto Costa Porto Actif 146 / 139 40% 4 17.03.2027 -
Mario Dorgeles Braga Actif 137 / 135 40% 4 17.03.2027 -
Majid Jahanbakhsh Rah Ahan Actif 123 / 132 40% 5 17.03.2027 -
Mateo Pellegrino Fiorentina Actif 138 / 138 40% 1 15.03.2027 -
William Gomes Porto Actif 137 / 151 40% 8 13.03.2027 -
Roberto Fernández Braga Actif 147 / 134 40% 17 12.03.2027 -
Nicolò Cambiaghi Bologna Actif 147 / 141 40% 1 12.03.2027 -
Yunus Akgün Galatasaray Actif 145 / 143 40% 1 12.03.2027 -
Rafik Guitane Estoril Praia Actif 139 / 136 40% 8 10.03.2027 -
Yanis Begraoui Estoril Praia Actif 139 / 132 40% 16 08.03.2027 -
Victor Froholdt Porto Actif 145 / 148 40% 6 08.03.2027 -
Ollie Watkins Al-Hilal Actif 154 / 150 40% 2 08.03.2027 -
Enrico Delprato Parma Actif 145 / 137 40% 1 08.03.2027 -
Noah Okafor Leeds United Actif 143 / 135 40% 3 04.03.2027 -
Santi García Gil Vicente Actif 133 / 130 40% 1 04.03.2027 -
Pau Víctor Braga Actif 137 / 139 40% 11 27.02.2027 -
Samu Vitoria Guimaraes Actif 126 / 125 40% 4 22.02.2027 -
Ismael Díaz Leon Actif 135 / 123 40% 4 22.02.2027 -
Luís Esteves Atlas Actif 131 / 135 40% 1 22.02.2027 -
Brian Brobbey Sunderland Actif 147 / 145 40% 1 22.02.2027 -
Alan Varela Porto Actif 144 / 151 40% 9 19.02.2027 -
Iván Fresneda Sporting CP Actif 139 / 135 40% 10 18.02.2027 -
Steven Bergwijn Al-Ittihad Actif 150 / 150 40% 1 18.02.2027 -
Fredrik Aursnes Benfica Actif 153 / 154 40% 1 14.02.2027 -
Enzo Barrenechea Benfica Actif 151 / 146 40% 8 12.02.2027 -
Jordan Holsgrove Estoril Praia Actif 127 / 133 40% 1 09.02.2027 -
Dwight McNeil Crystal Palace Actif 144 / 139 40% 1 02.02.2027 -
Samuel Lino Flamengo Actif 145 / 136 40% 9 31.01.2027 -
Patrick Sequeira Casa Pia Actif 124 / 122 40% 2 28.01.2027 -
Joan Femenías Penafiel Actif 120 / 112 40% 1 28.01.2027 -
João Gonçalves Oliveirense Actif 120 / 120 40% 1 28.01.2027 -
Erick Pulga Bahia Actif 132 / 129 40% 1 27.01.2027 -
Brais Méndez RC Lens Actif 147 / 142 40% 3 25.01.2027 -
Dodi Lukébakio Benfica Actif 143 / 143 40% 9 24.01.2027 -
Carlos Álvarez Club America Actif 136 / 140 40% 8 23.01.2027 -
James Garner Everton Actif 148 / 152 40% 1 20.01.2027 -
Victor Sá São Paulo Actif 123 / 123 40% 2 17.01.2027 -
João Palhinha Benfica Actif 149 / 148 40% 8 16.01.2027 -
Leandro Barreiro Benfica Actif 147 / 141 40% 12 14.01.2027 -
Dara O'Shea Ipswich Town Actif 140 / 140 40% 1 11.01.2027 -
Anel Ahmedhodžić Burnley Actif 130 / 130 40% 1 11.01.2027 -
Memphis Depay Corinthians Actif 146 / 143 40% 6 08.01.2027 -
Callum Hudson-Odoi Nottingham Forest Actif 152 / 142 40% 1 02.01.2027 -
Tyrhys Dolan Espanyol Actif 145 / 131 40% 2 31.12.2026 -
Esteban Lepaul Stade Rennais Actif 139 / 139 40% 2 31.12.2026 -
Nehuén Pérez Porto Actif 140 / 147 40% 1 31.12.2026 -
Kevin Álvarez Club America Actif 134 / 131 40% 1 31.12.2026 -
Roméo Lavia Chelsea Actif 139 / 147 40% 2 29.12.2026 -
Marcel Ruiz Crystal Palace Actif 137 / 146 40% 1 29.12.2026 -
Crysencio Summerville Al-Hilal Actif 140 / 133 40% 1 29.12.2026 -
Eduardo Quaresma Sporting CP Actif 142 / 138 40% 1 29.12.2026 -
Sofiane Diop OGC Nice Actif 142 / 148 40% 1 20.12.2026 -
Keane Lewis-Potter Brentford Actif 140 / 150 40% 2 19.12.2026 -
Jens Petter Hauge Bodo/Glimt Actif 138 / 133 40% 1 14.12.2026 -
Sergi Cardona KAA Gent Actif 153 / 138 40% 1 13.12.2026 -
Andreas Schjelderup Benfica Actif 139 / 139 40% 1 11.12.2026 -
Mamadou Sangaré Brentford Actif 146 / 138 40% 2 09.12.2026 -
Matheus Bidu Corinthians Actif 134 / 122 40% 1 03.12.2026 -
Gianluca Prestianni Benfica Actif 131 / 142 40% 1 30.11.2026 -
Claudio Spinelli Vasco da Gama Actif 130 / 126 40% 1 26.11.2026 -
Agustín Palavecino Cruz Azul Actif 144 / 138 40% 4 24.11.2026 -
Sadio Mané Al-Nassr Actif 150 / 138 40% 1 19.11.2026 -
Gustavo Silva Vitoria Guimaraes Actif 118 / 128 40% 1 08.11.2026 -
Juninho Pumas UNAM Actif 135 / 121 40% 1 04.11.2026 -
Víctor Gómez Braga Actif 143 / 139 40% 2 01.11.2026 -
Samuel Dahl Benfica Actif 140 / 134 40% 3 29.10.2026 -
Carlos Rodríguez Cruz Azul Actif 142 / 140 40% 2 29.10.2026 -
Heorhii Sudakov Benfica Actif 144 / 140 40% 2 24.10.2026 -
Ramón Juárez Club America Actif 140 / 141 40% 1 23.10.2026 -
Bongani Khune SuperSport United Actif 122 / 132 40% 2 17.10.2026 -
Luis Suárez Sporting CP Actif 149 / 153 40% 3 14.10.2026 -
João Carvalho Estoril Praia Actif 125 / 132 40% 2 11.10.2026 -
Fran Navarro Braga Actif 122 / 127 40% 4 08.10.2026 -
Juan Muñoz Leiria Actif 121 / 121 40% 2 08.10.2026 -
Arthur Cabral Botafogo Actif 126 / 124 40% 3 07.10.2026 -
Neymar Santos Actif 148 / 150 40% 1 07.10.2026 -
Alejandro Piedrahita Deportivo Pereira Actif 124 / 125 40% 2 06.10.2026 -
Alexey Miranchuk Atlanta United FC Actif 137 / 141 40% 2 28.09.2026 -
Henrique Araújo Casa Pia Actif 119 / 124 40% 1 25.09.2026 -
José Manuel López Palmeiras Actif 132 / 133 40% 1 22.09.2026 -
Sergi Altimira Sporting CP Actif 142 / 138 40% 1 18.09.2026 -
Heung-Min Son Los Angeles Football Club Actif 159 / 157 40% 2 12.09.2026 -
Héctor Hernández Gil Vicente Actif 120 / 120 40% 2 12.09.2026 -
Alfonso Trezza Arouca Actif 127 / 121 40% 1 12.09.2026 -
Mohammed Bouldini Académico de Viseu Actif 116 / 120 40% 2 10.09.2026 -
Andreas Pereira Palmeiras Actif 139 / 136 40% 1 10.09.2026 -
Dawda Camara Alverca Actif 119 / 117 40% 1 10.09.2026 -
Francisco Moura Porto Actif 140 / 138 40% 1 08.09.2026 -
Alexis Vega Feyenoord Actif 137 / 146 40% 1 04.09.2026 -
Petar Musa FC Dallas Actif 135 / 134 40% 2 02.09.2026 -
Nélson Oliveira Vitoria Guimaraes Actif 119 / 120 40% 1 28.08.2026 -
André Clovis Académico de Viseu Actif 113 / 125 40% 2 27.08.2026 -
Rafa Benfica Actif 138 / 140 40% 2 27.08.2026 -
Vinícius Lopes Santa Clara Actif 116 / 127 40% 2 26.08.2026 -
Giorgos Koutsias Famalicao Actif 111 / 121 40% 1 16.08.2026 -
Figueiredo Alverca Actif 133 / 130 40% 1 11.08.2026 -
Álvaro Valles Betis Actif 140 / 136 40% 1 07.08.2026 -
Unai Simón Athletic Bilbao Actif 156 / 161 40% 1 07.08.2026 -
Antonio Sivera Alavés Actif 137 / 138 40% 1 05.08.2026 -
Lazar Carević Famalicao Actif 121 / 128 40% 1 05.08.2026 -
Ignacio de Arruabarrena Arouca Actif 125 / 124 40% 1 03.08.2026 -